Saturday, January 20, 2018, 1:24 AM GMT
Back to Local

CYBG, Bagotville, Que.

Location: , , Canada Lat: 48.333
Local Time: 1:24 AM GMT ( 1:24 GMT) Lon: -71
Time Zone: GMT Elev: 521 ft

Show me the last for .
Show Decoded

2018-01-20 01:00 METAR CYBG 200100Z 10011KT 15SM -SN SCT030 OVC045 M08/M11 A2962 RMK SC3SC5
                 SLP042 =
2018-01-20 00:20 METAR CYBG 200020Z 11008KT 15SM -SN BKN030 OVC040 M08/M10 A2965 RMK SC5SC3
                 SLP055 =
2018-01-20 00:00 METAR CYBG 200000Z 11007KT 25SM OVC042 M08/M10 A2966 RMK SC8 SLP057 =
2018-01-19 23:00 METAR CYBG 192300Z 10007KT 25SM SCT025 OVC040 M08/M10 A2969 RMK SC4SC4 SLP068 =
2018-01-19 22:00 METAR CYBG 192200Z 10011KT 25SM -SN OVC025 M09/M10 A2968 RMK SC8 SLP063 =
2018-01-19 21:00 METAR CYBG 192100Z 10008KT 25SM OVC026 M09/M11 A2970 RMK SC8 SLP072 =
2018-01-19 20:00 METAR CYBG 192000Z 09011KT 15SM -SN OVC035 M09/M12 A2971 RMK SC8 SLP075 =
2018-01-19 19:00 METAR CYBG 191900Z 09009KT 15SM -SN BKN030 OVC080 M10/M12 A2973 RMK SC6AC2
                 SLP083 =
2018-01-19 18:25 METAR CYBG 191825Z 09009KT 8SM -SN FEW022 BKN030 OVC075 M10/M12 A2974 RMK
                 SC2SC3AC2 SLP086 =
2018-01-19 18:00 METAR CYBG 191800Z 09006KT 5SM -SN BKN022 OVC035 M11/M13 A2976 RMK SC6SC2 SLP092
                 =
2018-01-19 17:00 METAR CYBG 191700Z 09004KT 2SM -SN OVC022 M11/M14 A2979 RMK SC8 VIS VRB 1-3
                 SLP102 =
2018-01-19 16:40 METAR CYBG 191640Z 10004KT 5SM -SN OVC022 M12/M14 A2980 RMK SC8 SLP107 =
2018-01-19 16:00 METAR CYBG 191600Z 09003KT 6SM -SHSN OVC023 M12/M15 A2982 RMK SC8 SLP113 =
2018-01-19 15:00 METAR CYBG 191500Z 09008KT 6SM -SHSN OVC021 M13/M15 A2982 RMK SC8 SLP113 =
2018-01-19 14:00 METAR CYBG 191400Z 13003KT 8SM -SHSN OVC022 M13/M16 A2982 RMK SC8 SLP114 =
2018-01-19 13:50 METAR CYBG 191350Z 09002KT 7SM -SHSN BKN023 OVC030 M13/M16 A2982 RMK SC6SC2
                 SLP114 =
2018-01-19 13:00 METAR CYBG 191300Z 15002KT 6SM -SHSN OVC027 M14/M17 A2983 RMK SC8 SLP117 =
2018-01-19 12:28 METAR CYBG 191228Z 18002KT 5SM -SHSN OVC027 M14/M17 A2984 RMK SC8 SLP120 =
2018-01-19 12:00 METAR CYBG 191200Z 12002KT 6SM -SHSN OVC025 M14/M17 A2984 RMK SC8 SLP119 =
2018-01-19 11:00 METAR CYBG 191100Z 12002KT 25SM -SHSN OVC025 M14/M17 A2985 RMK SC8 SLP121 =
2018-01-19 10:00 METAR CYBG 191000Z 00000KT 25SM -SHSN OVC040 M15/M18 A2984 RMK SC8 SLP120 =
2018-01-19 09:00 METAR CYBG 190900Z 00000KT 20SM -SHSN OVC040 M15/M19 A2984 RMK SC8 SLP119 =
2018-01-19 08:00 METAR CYBG 190800Z 19003KT 20SM -SHSN OVC040 M16/M20 A2985 RMK SC8 SLP122 =
2018-01-19 07:00 METAR CYBG 190700Z 23003KT 25SM BKN040 M18/M21 A2986 RMK SC6 SLP127 =
2018-01-19 06:00 METAR CYBG 190600Z 19003KT 25SM FEW035 M19/M23 A2985 RMK SC2 SLP124 =
2018-01-19 05:00 METAR CYBG 190500Z 21003KT 25SM FEW035 M17/M20 A2987 RMK SC2 SLP128 =
2018-01-19 04:00 METAR CYBG 190400Z 26003KT 25SM FEW015 M19/M21 A2987 RMK SC2 SLP129 =
2018-01-19 03:25 METAR CYBG 190325Z 25003KT 25SM FEW015 M17/M19 A2987 RMK SC2 SLP127 =
2018-01-19 03:00 METAR CYBG 190300Z 27040KT 25SM -SHSN FEW013 SCT023 BKN030 M14/M17 A2987 RMK
                 SC2SC2SC2 SLP128 =
2018-01-19 02:00 METAR CYBG 190200Z 25004KT 15SM -SHSN OVC030 M14/M16 A2987 RMK SC8 SLP129 =

Support USWX by starting your Amazon purchase here.